Terminal Aerodrome Forecast
Issued by NWS

Home | Current Version | Previous Version | Graphics & Text | Print | Product List | Glossary On
Versions: 1 2 3 4 5 6 7 8 9 10 11 12 13 14 15 16 17 18 19 20 21 22
967
FTUS43 KTOP 241503 AAC
TAFFOE
TAF AMD
KFOE 241503Z 2415/2512 30014KT 6SM BR OVC012
      TEMPO 2415/2417 2SM BR
     FM241900 30020G28KT P6SM VCSH BKN014
     FM250000 32015G25KT P6SM OVC025
     FM250200 32014G23KT P6SM OVC035
     FM250800 32012KT P6SM SCT100=

USA.gov is the U.S. government's official web portal to all federal, state and local government web resources and services.